Time;durP1;ratioP1;P1;durP2;ratioP2;P2;SDS_P1;SDS_P2;PMS_P1;PMS_P2;Temp;Humidity;BMP_temperature;BMP_pressure;BME280_temperature;BME280_humidity;BME280_pressure;Samples;Min_cycle;Max_cycle;Signal;HPM_P1;HPM_P2
2021/09/01 00:01:12;;;;;;;12.97;4.77;;;15.90;99.90;;;;;;5077340;28;20249;-80
2021/09/01 00:03:39;;;;;;;15.53;4.73;;;15.90;99.90;;;;;;5076036;28;20214;-78
2021/09/01 00:06:06;;;;;;;14.83;4.90;;;15.90;99.90;;;;;;5089571;28;20199;-81
2021/09/01 00:08:33;;;;;;;15.80;4.53;;;15.90;99.90;;;;;;5072159;28;20672;-83
2021/09/01 00:11:00;;;;;;;14.53;4.60;;;16.00;99.90;;;;;;5075924;28;20230;-82
2021/09/01 00:13:28;;;;;;;13.43;4.37;;;16.00;99.90;;;;;;5075557;28;20277;-79
2021/09/01 00:15:55;;;;;;;15.80;4.37;;;15.90;99.90;;;;;;5075276;28;20708;-79
2021/09/01 00:18:22;;;;;;;11.90;4.10;;;15.80;99.90;;;;;;5075666;28;20290;-78
2021/09/01 00:20:49;;;;;;;22.50;5.83;;;15.80;99.90;;;;;;5075018;28;20299;-83
2021/09/01 00:23:16;;;;;;;10.67;4.10;;;15.80;99.90;;;;;;5075783;28;20226;-78
2021/09/01 00:25:43;;;;;;;9.33;4.40;;;15.80;99.90;;;;;;5075119;28;20260;-78
2021/09/01 00:28:10;;;;;;;15.40;4.63;;;15.70;99.90;;;;;;5075748;28;20654;-78
2021/09/01 00:30:38;;;;;;;14.90;4.30;;;15.70;99.90;;;;;;5075142;28;20223;-78
2021/09/01 00:33:05;;;;;;;12.83;3.53;;;15.70;99.90;;;;;;5074327;28;20214;-78
2021/09/01 00:35:32;;;;;;;11.90;4.10;;;15.80;99.90;;;;;;5074841;28;20207;-78
2021/09/01 00:37:59;;;;;;;13.00;4.03;;;15.90;99.90;;;;;;5075794;28;20223;-81
2021/09/01 00:40:28;;;;;;;17.07;4.57;;;15.90;99.90;;;;;;5074924;28;20749;-77
2021/09/01 00:42:55;;;;;;;13.83;4.10;;;16.00;99.90;;;;;;5074995;28;20217;-79
2021/09/01 00:45:22;;;;;;;13.30;4.10;;;16.00;99.90;;;;;;5073532;28;20207;-78
2021/09/01 00:47:51;;;;;;;11.27;4.27;;;16.00;99.90;;;;;;5072886;28;20571;-79
2021/09/01 00:50:17;;;;;;;11.63;3.47;;;16.00;99.90;;;;;;5072708;28;20719;-79
2021/09/01 00:52:44;;;;;;;13.37;4.03;;;15.90;99.90;;;;;;5073280;28;20640;-85
2021/09/01 00:55:13;;;;;;;16.50;4.20;;;16.00;99.90;;;;;;5073913;28;20322;-78
2021/09/01 00:57:41;;;;;;;17.83;4.80;;;16.10;99.90;;;;;;5073245;28;20234;-78
2021/09/01 01:00:12;;;;;;;18.23;5.00;;;15.90;99.90;;;;;;5076846;28;20437;-79
2021/09/01 01:02:39;;;;;;;16.83;3.87;;;16.00;99.90;;;;;;5075651;28;20199;-79
2021/09/01 01:05:09;;;;;;;11.63;5.07;;;16.10;99.90;;;;;;5075156;28;20235;-78
2021/09/01 01:07:36;;;;;;;14.83;4.37;;;16.00;99.90;;;;;;5074641;28;20238;-80
2021/09/01 01:10:03;;;;;;;12.13;3.70;;;16.00;99.90;;;;;;5074452;28;20619;-78
2021/09/01 01:12:32;;;;;;;12.93;4.13;;;16.00;99.90;;;;;;5074482;28;20225;-79
2021/09/01 01:14:59;;;;;;;10.83;3.67;;;16.00;99.90;;;;;;5074249;28;20290;-85
2021/09/01 01:17:26;;;;;;;13.60;3.63;;;15.80;99.90;;;;;;5074712;28;20287;-79
2021/09/01 01:19:54;;;;;;;14.40;4.10;;;15.90;99.90;;;;;;5073902;28;20210;-78
2021/09/01 01:22:23;;;;;;;8.87;3.37;;;15.80;99.90;;;;;;5074105;28;20274;-82
2021/09/01 01:24:56;;;;;;;14.30;3.50;;;15.90;99.90;;;;;;5074436;28;20298;-79
2021/09/01 01:27:30;;;;;;;19.13;4.30;;;16.00;99.90;;;;;;5074664;28;20623;-79
2021/09/01 01:29:58;;;;;;;9.30;3.40;;;15.90;99.90;;;;;;5074326;28;20303;-82
2021/09/01 01:32:26;;;;;;;13.67;4.67;;;15.90;99.90;;;;;;5074379;28;20295;-78
2021/09/01 01:34:53;;;;;;;13.40;4.13;;;15.80;99.90;;;;;;5074716;28;20713;-84
2021/09/01 01:37:20;;;;;;;13.43;4.10;;;15.90;99.90;;;;;;5074338;28;20278;-85
2021/09/01 01:39:47;;;;;;;18.20;4.73;;;15.80;99.90;;;;;;5073887;28;20234;-76
2021/09/01 01:42:14;;;;;;;18.60;4.40;;;15.80;99.90;;;;;;5073909;28;20242;-77
2021/09/01 01:44:42;;;;;;;16.03;4.00;;;15.80;99.90;;;;;;5073815;28;20294;-79
2021/09/01 01:47:09;;;;;;;19.83;4.10;;;15.80;99.90;;;;;;5073328;28;20294;-78
2021/09/01 01:49:37;;;;;;;14.87;3.60;;;15.80;99.90;;;;;;5073893;28;20295;-78
2021/09/01 01:52:04;;;;;;;12.13;3.90;;;15.80;99.90;;;;;;5073664;28;20199;-79
2021/09/01 01:54:31;;;;;;;21.47;4.00;;;15.80;99.90;;;;;;5073688;28;20200;-80
2021/09/01 01:56:58;;;;;;;12.07;3.60;;;15.70;99.90;;;;;;5072795;28;20669;-78
2021/09/01 01:59:25;;;;;;;16.93;4.90;;;15.90;99.90;;;;;;5074431;28;20221;-79
2021/09/01 02:01:53;;;;;;;13.00;3.67;;;15.80;99.90;;;;;;5074776;28;20665;-78
2021/09/01 02:04:20;;;;;;;7.83;3.23;;;15.80;99.90;;;;;;5073675;28;20206;-82
2021/09/01 02:06:47;;;;;;;18.17;3.77;;;15.90;99.90;;;;;;5073081;28;20556;-78
2021/09/01 02:09:14;;;;;;;14.37;3.90;;;16.00;99.90;;;;;;5072810;28;20229;-78
2021/09/01 02:11:41;;;;;;;18.37;4.13;;;16.00;99.90;;;;;;5073244;28;20282;-81
2021/09/01 02:14:08;;;;;;;15.07;3.67;;;16.00;99.90;;;;;;5073454;28;20215;-79
2021/09/01 02:16:35;;;;;;;12.40;3.50;;;16.00;99.90;;;;;;5073271;28;20304;-82
2021/09/01 02:19:03;;;;;;;17.97;3.70;;;16.30;99.90;;;;;;5073338;28;20238;-77
2021/09/01 02:21:30;;;;;;;11.97;3.50;;;16.50;99.90;;;;;;5073098;28;20213;-78
2021/09/01 02:23:57;;;;;;;13.57;3.90;;;16.40;99.90;;;;;;5072934;28;20286;-85
2021/09/01 02:26:24;;;;;;;13.17;3.73;;;16.40;99.90;;;;;;5072664;28;20290;-79
2021/09/01 02:28:51;;;;;;;17.03;3.83;;;16.20;99.90;;;;;;5072889;28;20692;-79
2021/09/01 02:31:18;;;;;;;10.50;3.77;;;16.10;99.90;;;;;;5072680;28;20306;-81
2021/09/01 02:33:45;;;;;;;15.90;3.83;;;16.10;99.90;;;;;;5087661;28;20199;-81
2021/09/01 02:36:13;;;;;;;14.40;3.97;;;16.40;99.90;;;;;;5073160;28;20238;-78
2021/09/01 02:38:43;;;;;;;10.77;3.80;;;16.60;99.90;;;;;;5072938;28;20287;-83
2021/09/01 02:41:10;;;;;;;15.53;4.00;;;16.60;99.90;;;;;;5079884;28;20706;-79
2021/09/01 02:43:37;;;;;;;16.60;4.20;;;16.70;99.90;;;;;;5077299;28;20247;-78
2021/09/01 02:46:05;;;;;;;12.30;3.70;;;16.70;99.90;;;;;;5073246;28;20713;-79
2021/09/01 02:48:31;;;;;;;15.00;4.23;;;16.80;99.90;;;;;;5072512;28;20202;-80
2021/09/01 02:50:59;;;;;;;15.27;3.87;;;16.70;99.90;;;;;;5072837;28;20230;-83
2021/09/01 02:53:27;;;;;;;13.63;3.70;;;16.60;99.90;;;;;;5073045;28;20215;-85
2021/09/01 02:55:54;;;;;;;18.50;4.30;;;16.40;99.90;;;;;;5072730;28;20192;-79
2021/09/01 02:58:21;;;;;;;10.53;3.53;;;16.30;99.90;;;;;;5073434;28;20227;-82
2021/09/01 03:00:48;;;;;;;14.60;4.20;;;16.20;99.90;;;;;;5074593;28;20199;-82
2021/09/01 03:03:14;;;;;;;19.27;4.17;;;16.20;99.90;;;;;;5072605;28;20717;-78
2021/09/01 03:05:41;;;;;;;20.40;3.87;;;16.20;99.90;;;;;;5072799;28;20235;-81
2021/09/01 03:08:08;;;;;;;17.70;3.80;;;16.10;99.90;;;;;;5074493;28;20712;-79
2021/09/01 03:10:37;;;;;;;15.43;4.43;;;16.20;99.90;;;;;;5076530;28;20227;-81
2021/09/01 03:13:04;;;;;;;18.70;4.57;;;16.10;99.90;;;;;;5076387;28;20211;-79
2021/09/01 03:15:32;;;;;;;10.90;3.67;;;16.00;99.90;;;;;;5076540;28;20199;-79
2021/09/01 03:17:59;;;;;;;12.70;3.67;;;16.10;99.90;;;;;;5076373;28;20741;-83
2021/09/01 03:20:27;;;;;;;12.73;4.37;;;16.20;99.90;;;;;;5076463;28;20286;-80
2021/09/01 03:22:53;;;;;;;11.47;3.67;;;16.30;99.90;;;;;;5076763;28;20295;-78
2021/09/01 03:25:21;;;;;;;14.27;3.73;;;16.20;99.90;;;;;;5075865;28;20294;-82
2021/09/01 03:27:49;;;;;;;12.83;3.80;;;16.20;99.90;;;;;;5076654;28;20286;-82
2021/09/01 03:30:16;;;;;;;17.20;3.90;;;16.30;99.90;;;;;;5076134;28;20215;-85
2021/09/01 03:32:43;;;;;;;13.17;3.57;;;16.30;99.90;;;;;;5076126;28;20286;-78
2021/09/01 03:35:10;;;;;;;14.53;3.87;;;16.20;99.90;;;;;;5075848;28;20234;-82
2021/09/01 03:37:37;;;;;;;16.80;4.03;;;16.20;99.90;;;;;;5076208;28;20227;-81
2021/09/01 03:40:05;;;;;;;12.67;3.70;;;16.30;99.90;;;;;;5075778;28;20294;-84
2021/09/01 03:42:32;;;;;;;21.20;4.47;;;16.20;99.90;;;;;;5061855;28;20231;-78
2021/09/01 03:45:00;;;;;;;9.20;3.27;;;16.20;99.90;;;;;;5076328;28;20207;-78
2021/09/01 03:47:27;;;;;;;17.63;4.07;;;16.10;99.90;;;;;;5075965;28;20275;-78
2021/09/01 03:49:54;;;;;;;13.43;4.10;;;16.00;99.90;;;;;;5076060;28;20219;-79
2021/09/01 03:52:21;;;;;;;18.37;4.00;;;16.10;99.90;;;;;;5075623;28;20239;-78
2021/09/01 03:54:48;;;;;;;15.57;3.90;;;16.10;99.90;;;;;;5075952;28;20203;-78
2021/09/01 03:57:15;;;;;;;17.17;4.10;;;15.90;99.90;;;;;;5075891;28;20261;-78
2021/09/01 03:59:41;;;;;;;17.93;4.37;;;15.90;99.90;;;;;;5079185;28;20213;-80
2021/09/01 04:02:10;;;;;;;17.30;4.07;;;15.80;99.90;;;;;;5077497;28;20294;-82
2021/09/01 04:04:37;;;;;;;15.90;3.57;;;15.70;99.90;;;;;;5076973;28;20282;-78
2021/09/01 04:07:04;;;;;;;14.40;3.80;;;15.80;99.90;;;;;;5077305;28;20242;-78
2021/09/01 04:09:32;;;;;;;18.40;4.50;;;16.00;99.90;;;;;;5077936;28;20289;-79
2021/09/01 04:11:59;;;;;;;16.83;3.93;;;16.00;99.90;;;;;;5076710;28;20298;-80
2021/09/01 04:14:26;;;;;;;17.30;4.47;;;16.00;99.90;;;;;;5077295;28;20337;-79
2021/09/01 04:16:53;;;;;;;13.20;3.77;;;15.90;99.90;;;;;;5091984;28;20645;-82
2021/09/01 04:19:21;;;;;;;17.97;4.23;;;15.70;99.90;;;;;;5076130;28;20263;-78
2021/09/01 04:21:48;;;;;;;21.63;4.53;;;15.70;99.90;;;;;;5076816;28;20286;-78
2021/09/01 04:24:15;;;;;;;12.57;3.90;;;15.70;99.90;;;;;;5075974;28;20261;-78
2021/09/01 04:26:41;;;;;;;17.43;4.60;;;15.70;99.90;;;;;;5078006;28;20292;-78
2021/09/01 04:29:09;;;;;;;16.07;4.30;;;15.80;99.90;;;;;;5079566;28;20329;-79
2021/09/01 04:31:36;;;;;;;10.10;3.80;;;15.90;99.90;;;;;;5094768;28;20245;-79
2021/09/01 04:34:03;;;;;;;17.20;4.30;;;15.90;99.90;;;;;;5095349;28;20195;-79
2021/09/01 04:36:31;;;;;;;16.10;4.33;;;16.00;99.90;;;;;;5094814;28;20607;-79
2021/09/01 04:38:58;;;;;;;17.23;4.37;;;16.00;99.90;;;;;;5094890;28;20211;-77
2021/09/01 04:41:25;;;;;;;11.60;3.93;;;16.00;99.90;;;;;;5095819;28;20203;-78
2021/09/01 04:43:52;;;;;;;16.73;4.37;;;15.90;99.90;;;;;;5094126;28;20199;-75
2021/09/01 04:46:19;;;;;;;11.87;4.27;;;15.90;99.90;;;;;;5093136;28;20222;-76
2021/09/01 04:48:46;;;;;;;12.77;3.97;;;15.80;99.90;;;;;;5094536;28;20211;-77
2021/09/01 04:51:13;;;;;;;16.73;4.33;;;16.00;99.90;;;;;;5092437;28;20230;-76
2021/09/01 04:53:41;;;;;;;12.27;4.20;;;15.80;99.90;;;;;;5092050;28;20203;-79
2021/09/01 04:56:08;;;;;;;20.47;4.67;;;16.00;99.90;;;;;;5075894;28;20661;-79
2021/09/01 04:58:35;;;;;;;11.93;4.37;;;16.00;99.90;;;;;;5075524;28;20230;-78
2021/09/01 05:01:02;;;;;;;14.27;3.93;;;16.00;99.90;;;;;;5080018;28;20253;-78
2021/09/01 05:03:29;;;;;;;15.43;4.40;;;15.90;99.90;;;;;;5089392;28;20650;-80
2021/09/01 05:05:56;;;;;;;15.73;4.07;;;16.00;99.90;;;;;;5074775;28;20196;-82
2021/09/01 05:08:23;;;;;;;13.57;4.40;;;16.00;99.90;;;;;;5074605;28;20208;-78
2021/09/01 05:10:52;;;;;;;15.07;4.10;;;16.10;99.90;;;;;;5075138;28;20223;-79
2021/09/01 05:13:19;;;;;;;11.83;4.40;;;15.90;99.90;;;;;;5073899;28;20248;-78
2021/09/01 05:15:46;;;;;;;16.43;4.43;;;15.90;99.90;;;;;;5074271;28;20295;-79
2021/09/01 05:18:13;;;;;;;15.23;4.43;;;16.00;99.90;;;;;;5073910;28;20200;-81
2021/09/01 05:20:40;;;;;;;13.50;4.07;;;15.90;99.90;;;;;;5074666;28;20298;-82
2021/09/01 05:23:08;;;;;;;13.07;4.53;;;15.90;99.90;;;;;;5073636;28;20200;-78
2021/09/01 05:25:47;;;;;;;13.43;4.17;;;15.80;99.90;;;;;;5075787;28;20235;-80
2021/09/01 05:28:17;;;;;;;11.73;4.03;;;15.70;99.90;;;;;;5073170;28;20227;-80
2021/09/01 05:30:48;;;;;;;11.60;4.20;;;15.90;99.90;;;;;;5070621;28;20689;-79
2021/09/01 05:33:20;;;;;;;12.37;3.67;;;15.80;99.90;;;;;;5078919;28;20206;-81
2021/09/01 05:35:49;;;;;;;10.83;3.80;;;15.90;99.90;;;;;;5074433;28;20194;-79
2021/09/01 05:38:18;;;;;;;12.97;4.07;;;16.00;99.90;;;;;;5078968;28;20218;-83
2021/09/01 05:40:48;;;;;;;15.07;4.10;;;16.00;99.90;;;;;;5082424;28;20587;-78
2021/09/01 05:43:17;;;;;;;15.63;4.73;;;16.10;99.90;;;;;;5079810;28;20358;-82
2021/09/01 05:45:45;;;;;;;11.33;3.93;;;16.20;99.90;;;;;;5073201;28;20621;-82
2021/09/01 05:48:12;;;;;;;14.00;4.27;;;16.30;99.90;;;;;;5084030;28;20203;-78
2021/09/01 05:50:41;;;;;;;14.50;4.23;;;16.30;99.90;;;;;;5085104;28;20253;-79
2021/09/01 05:53:09;;;;;;;23.30;5.30;;;16.20;99.90;;;;;;5089521;28;20199;-83
2021/09/01 05:55:41;;;;;;;21.00;5.37;;;16.20;99.90;;;;;;5084074;28;20272;-82
2021/09/01 05:58:11;;;;;;;14.90;4.87;;;16.40;99.90;;;;;;5088174;28;20267;-79
2021/09/01 06:00:41;;;;;;;14.37;4.20;;;16.30;99.90;;;;;;5079132;28;20745;-77
2021/09/01 06:03:17;;;;;;;15.83;4.07;;;16.60;99.90;;;;;;5071786;28;20567;-77
2021/09/01 06:05:45;;;;;;;16.33;4.93;;;16.40;99.90;;;;;;5071217;28;20195;-77
2021/09/01 06:08:13;;;;;;;8.83;4.17;;;16.30;99.90;;;;;;5079070;28;20249;-81
2021/09/01 06:10:41;;;;;;;15.50;4.70;;;16.30;99.90;;;;;;5081723;28;20641;-78
2021/09/01 06:13:09;;;;;;;13.73;4.90;;;16.40;99.90;;;;;;5083634;28;20259;-78
2021/09/01 06:15:41;;;;;;;12.77;4.43;;;16.60;99.90;;;;;;5079124;28;20282;-79
2021/09/01 06:18:09;;;;;;;12.53;4.13;;;16.50;99.90;;;;;;5077886;28;20263;-78
2021/09/01 06:20:37;;;;;;;21.07;4.90;;;16.50;99.90;;;;;;5063706;28;20235;-77
2021/09/01 06:23:04;;;;;;;13.27;4.40;;;16.50;99.90;;;;;;5076793;28;20282;-78
2021/09/01 06:25:31;;;;;;;12.63;4.63;;;16.50;99.90;;;;;;5072220;28;20227;-78
2021/09/01 06:27:59;;;;;;;13.83;4.10;;;16.40;99.90;;;;;;5074609;28;20278;-77
2021/09/01 06:30:26;;;;;;;17.43;4.60;;;16.50;99.90;;;;;;5068592;28;20629;-77
2021/09/01 06:32:54;;;;;;;15.40;4.23;;;16.50;99.90;;;;;;5072976;28;20211;-79
2021/09/01 06:35:21;;;;;;;13.20;4.47;;;16.70;99.90;;;;;;5069836;28;20213;-78
2021/09/01 06:37:50;;;;;;;13.20;4.63;;;16.90;99.90;;;;;;5071809;28;20241;-83
2021/09/01 06:40:19;;;;;;;11.97;4.17;;;17.10;99.90;;;;;;5070814;28;20282;-79
2021/09/01 06:42:46;;;;;;;16.57;4.40;;;17.10;99.90;;;;;;5068196;28;20573;-82
2021/09/01 06:45:13;;;;;;;14.03;4.63;;;17.20;99.90;;;;;;5078150;28;20419;-79
2021/09/01 06:47:42;;;;;;;16.57;4.30;;;17.30;99.90;;;;;;5056165;28;20202;-78
2021/09/01 06:50:13;;;;;;;17.23;4.20;;;17.50;99.90;;;;;;5056456;28;20298;-77
2021/09/01 06:52:41;;;;;;;12.33;4.50;;;17.50;99.90;;;;;;5058068;28;20306;-83
2021/09/01 06:55:09;;;;;;;8.90;4.00;;;17.50;99.90;;;;;;5073922;28;20299;-82
2021/09/01 06:57:36;;;;;;;18.83;4.60;;;17.40;99.90;;;;;;5071832;28;20681;-78
2021/09/01 07:00:04;;;;;;;13.47;4.60;;;17.60;99.90;;;;;;5072635;28;20616;-78
2021/09/01 07:02:31;;;;;;;14.27;4.83;;;17.90;99.90;;;;;;5069042;28;20564;-79
2021/09/01 07:04:58;;;;;;;14.37;4.60;;;17.70;99.90;;;;;;5072513;28;20306;-83
2021/09/01 07:07:27;;;;;;;12.30;4.23;;;17.80;99.90;;;;;;5072444;28;20287;-79
2021/09/01 07:09:55;;;;;;;10.20;4.00;;;17.90;99.90;;;;;;5072215;28;20199;-79
2021/09/01 07:12:22;;;;;;;16.03;4.57;;;18.00;99.90;;;;;;5071507;28;20635;-81
2021/09/01 07:14:49;;;;;;;14.53;4.20;;;17.60;99.90;;;;;;5071337;28;20188;-78
2021/09/01 07:17:16;;;;;;;14.40;4.43;;;17.70;99.90;;;;;;5068465;28;20298;-78
2021/09/01 07:19:43;;;;;;;10.63;4.63;;;17.60;99.90;;;;;;5063836;28;20302;-81
2021/09/01 07:22:11;;;;;;;13.40;3.97;;;17.80;99.90;;;;;;5069430;28;20302;-78
2021/09/01 07:24:39;;;;;;;15.77;4.83;;;18.10;99.90;;;;;;5071258;28;20196;-80
2021/09/01 07:27:06;;;;;;;10.37;4.40;;;18.10;99.90;;;;;;5071599;28;20203;-82
2021/09/01 07:29:33;;;;;;;13.90;4.70;;;18.00;99.90;;;;;;5071361;28;20306;-80
2021/09/01 07:32:00;;;;;;;19.83;4.90;;;18.10;99.90;;;;;;5070883;28;20224;-79
2021/09/01 07:34:27;;;;;;;10.77;4.10;;;17.90;99.90;;;;;;5071623;28;20620;-79
2021/09/01 07:36:54;;;;;;;12.97;4.40;;;17.80;99.90;;;;;;5069646;28;20227;-82
2021/09/01 07:39:23;;;;;;;15.07;5.10;;;17.90;99.90;;;;;;5082841;28;20205;-78
2021/09/01 07:41:52;;;;;;;15.60;4.67;;;18.10;99.90;;;;;;5080971;28;20252;-80
2021/09/01 07:44:19;;;;;;;17.43;4.43;;;18.00;99.90;;;;;;5075428;28;20309;-78
2021/09/01 07:46:46;;;;;;;12.60;4.93;;;18.00;99.90;;;;;;5076705;28;20231;-79
2021/09/01 07:49:13;;;;;;;15.63;4.60;;;17.90;99.90;;;;;;5070422;28;20208;-80
2021/09/01 07:51:40;;;;;;;16.60;4.50;;;18.20;99.90;;;;;;5071358;28;20310;-78
2021/09/01 07:54:07;;;;;;;14.97;4.33;;;18.50;99.90;;;;;;5072657;28;20192;-79
2021/09/01 07:56:34;;;;;;;12.87;4.33;;;18.80;99.90;;;;;;5074579;28;20622;-80
2021/09/01 07:59:03;;;;;;;17.17;5.17;;;18.50;99.90;;;;;;5075321;28;20235;-79
2021/09/01 08:01:30;;;;;;;12.97;4.30;;;18.10;99.90;;;;;;5071555;28;20199;-80
2021/09/01 08:03:56;;;;;;;14.70;4.70;;;18.20;99.90;;;;;;5073899;28;20204;-78
2021/09/01 08:06:23;;;;;;;16.97;5.10;;;18.30;99.90;;;;;;5077321;28;20204;-79
2021/09/01 08:08:51;;;;;;;15.80;5.10;;;18.50;99.90;;;;;;5075545;28;20596;-82
2021/09/01 08:11:18;;;;;;;16.87;4.37;;;18.30;99.90;;;;;;5080080;28;20855;-81
2021/09/01 08:13:45;;;;;;;17.50;5.20;;;18.10;99.90;;;;;;5071545;28;20226;-80
2021/09/01 08:16:13;;;;;;;16.67;4.63;;;18.30;99.90;;;;;;5077929;28;20241;-80
2021/09/01 08:18:40;;;;;;;14.27;4.60;;;18.60;99.90;;;;;;5079239;28;20643;-77
2021/09/01 08:21:07;;;;;;;15.57;4.87;;;18.60;99.90;;;;;;5076979;28;20289;-77
2021/09/01 08:23:34;;;;;;;15.07;4.63;;;18.50;99.90;;;;;;5086428;28;20231;-77
2021/09/01 08:26:01;;;;;;;18.07;4.67;;;18.70;99.90;;;;;;5080903;28;20554;-78
2021/09/01 08:28:27;;;;;;;11.93;4.50;;;18.70;99.90;;;;;;5089665;28;20206;-81
2021/09/01 08:30:54;;;;;;;13.83;4.90;;;19.00;99.90;;;;;;5074265;28;20191;-78
2021/09/01 08:33:23;;;;;;;12.80;4.40;;;19.50;99.90;;;;;;5070251;28;20291;-77
2021/09/01 08:35:50;;;;;;;12.13;4.87;;;20.10;99.90;;;;;;5070355;28;20200;-78
2021/09/01 08:38:17;;;;;;;14.60;4.60;;;20.30;99.90;;;;;;5071332;28;20294;-80
2021/09/01 08:40:44;;;;;;;11.83;4.87;;;19.80;99.90;;;;;;5072387;28;20212;-81
2021/09/01 08:43:11;;;;;;;11.77;4.77;;;19.80;99.90;;;;;;5081110;28;20287;-79
2021/09/01 08:45:39;;;;;;;14.93;4.93;;;20.20;99.90;;;;;;5093541;28;20653;-82
2021/09/01 08:48:07;;;;;;;13.73;5.13;;;19.90;99.90;;;;;;5078403;28;20649;-80
2021/09/01 08:50:36;;;;;;;11.87;4.43;;;19.90;99.90;;;;;;5071967;28;20235;-79
2021/09/01 08:53:03;;;;;;;12.83;5.53;;;19.90;99.90;;;;;;5073907;28;20281;-81
2021/09/01 08:55:30;;;;;;;13.13;4.30;;;20.00;99.90;;;;;;5074336;28;20286;-80
2021/09/01 08:57:56;;;;;;;13.10;4.30;;;20.10;99.90;;;;;;5074739;28;20694;-78
2021/09/01 09:00:23;;;;;;;13.47;4.90;;;20.60;99.90;;;;;;5074567;28;20278;-81
2021/09/01 09:02:55;;;;;;;16.90;4.70;;;21.20;99.90;;;;;;5070478;28;20203;-79
2021/09/01 09:05:30;;;;;;;11.10;4.20;;;21.60;99.90;;;;;;5073939;28;20234;-77
2021/09/01 09:07:59;;;;;;;16.27;5.05;;;21.90;99.90;;;;;;5081452;28;20198;-79
2021/09/01 09:10:27;;;;;;;10.05;4.00;;;22.30;99.90;;;;;;5069910;28;20239;-77
2021/09/01 09:12:59;;;;;;;18.23;4.80;;;22.30;99.90;;;;;;5073959;28;20307;-79
2021/09/01 09:15:26;;;;;;;14.57;4.97;;;22.30;99.90;;;;;;5086757;28;20245;-79
2021/09/01 09:17:53;;;;;;;10.83;4.53;;;21.70;99.90;;;;;;5073090;28;20195;-78
2021/09/01 09:20:27;;;;;;;15.43;4.27;;;20.90;99.90;;;;;;5072765;28;20282;-79
2021/09/01 09:22:54;;;;;;;12.15;4.05;;;21.00;99.90;;;;;;5073386;28;20624;-78
2021/09/01 09:25:27;;;;;;;15.43;4.47;;;20.60;99.90;;;;;;5072599;28;20249;-77
2021/09/01 09:27:57;;;;;;;8.43;3.87;;;20.20;99.90;;;;;;5072340;28;20203;-80
2021/09/01 09:30:39;;;;;;;12.13;4.20;;;19.80;99.90;;;;;;5073509;28;20196;-78
2021/09/01 09:33:09;;;;;;;11.20;4.40;;;19.50;99.90;;;;;;5072678;28;20261;-81
2021/09/01 09:35:58;;;;;;;11.43;4.13;;;19.10;99.90;;;;;;5073840;28;20219;-82
2021/09/01 09:38:30;;;;;;;13.17;4.10;;;19.10;99.90;;;;;;5068244;28;20276;-77
2021/09/01 09:41:00;;;;;;;14.33;4.57;;;19.00;99.90;;;;;;5073215;28;20195;-79
2021/09/01 09:43:28;;;;;;;12.20;4.10;;;19.40;99.90;;;;;;5073661;28;20618;-80
2021/09/01 09:46:06;;;;;;;14.20;4.00;;;19.70;99.90;;;;;;5079873;28;20226;-80
2021/09/01 09:48:35;;;;;;;10.40;3.97;;;19.60;99.90;;;;;;5055880;28;20213;-84
2021/09/01 09:51:04;;;;;;;9.07;4.20;;;19.40;99.90;;;;;;5069957;28;20211;-81
2021/09/01 09:53:36;;;;;;;13.93;4.40;;;19.10;99.90;;;;;;5072113;28;20239;-81
2021/09/01 09:56:06;;;;;;;11.40;4.27;;;19.40;99.90;;;;;;5067484;28;20208;-82
2021/09/01 09:58:35;;;;;;;12.30;4.40;;;19.90;99.90;;;;;;5072221;28;20291;-85
2021/09/01 10:01:04;;;;;;;10.40;4.03;;;19.60;99.90;;;;;;5065404;28;20291;-83
2021/09/01 10:03:32;;;;;;;15.77;4.67;;;19.60;99.90;;;;;;5073747;28;20203;-83
2021/09/01 10:06:01;;;;;;;12.60;4.43;;;19.60;99.90;;;;;;5075662;28;20221;-75
2021/09/01 10:08:30;;;;;;;12.53;4.10;;;20.10;99.90;;;;;;5084737;28;20206;-80
2021/09/01 10:10:59;;;;;;;9.10;4.03;;;20.10;99.90;;;;;;5076763;28;20238;-82
2021/09/01 10:13:28;;;;;;;11.33;4.60;;;19.90;99.90;;;;;;5080430;28;20310;-80
2021/09/01 10:15:58;;;;;;;8.03;4.17;;;20.10;99.90;;;;;;5080816;28;20203;-80
2021/09/01 10:18:27;;;;;;;11.77;4.40;;;19.70;99.90;;;;;;5068937;28;20218;-81
2021/09/01 10:20:55;;;;;;;13.27;5.23;;;19.80;99.90;;;;;;5072044;28;20307;-80
2021/09/01 10:23:36;;;;;;;11.20;4.60;;;19.80;99.90;;;;;;5072152;28;20253;-79
2021/09/01 10:26:21;;;;;;;10.63;4.67;;;19.50;99.90;;;;;;5071898;28;20223;-80
2021/09/01 10:28:49;;;;;;;9.30;4.73;;;19.40;99.90;;;;;;5074328;28;20195;-81
2021/09/01 10:31:27;;;;;;;9.17;4.00;;;19.60;99.90;;;;;;5068338;28;20661;-81
2021/09/01 10:33:58;;;;;;;9.17;3.97;;;19.50;99.90;;;;;;5075381;28;20298;-79
2021/09/01 10:36:48;;;;;;;11.50;4.10;;;19.30;99.90;;;;;;5082984;28;20568;-80
2021/09/01 10:39:44;;;;;;;14.13;4.60;;;19.60;99.90;;;;;;5081465;28;20205;-79
2021/09/01 10:42:33;;;;;;;9.00;4.23;;;19.80;99.90;;;;;;5081911;28;20223;-78
2021/09/01 10:45:03;;;;;;;10.13;4.73;;;19.70;99.90;;;;;;5078735;28;20210;-79
2021/09/01 10:48:03;;;;;;;10.53;4.57;;;19.50;99.90;;;;;;5069901;28;20269;-81
2021/09/01 10:50:31;;;;;;;10.67;4.30;;;19.80;99.90;;;;;;5075455;28;20194;-82
2021/09/01 10:53:02;;;;;;;10.03;4.20;;;20.30;99.90;;;;;;5085505;28;20260;-77
2021/09/01 10:55:29;;;;;;;9.47;4.33;;;20.80;99.90;;;;;;5079631;28;20199;-76
2021/09/01 10:58:19;;;;;;;9.63;4.20;;;21.10;99.90;;;;;;5078960;28;20692;-79
2021/09/01 11:00:57;;;;;;;8.17;4.23;;;21.60;99.90;;;;;;5083065;28;20290;-78
2021/09/01 11:03:29;;;;;;;9.27;3.90;;;21.40;99.90;;;;;;5078252;28;20253;-78
2021/09/01 11:05:56;;;;;;;7.57;4.03;;;21.00;99.90;;;;;;5074356;28;20253;-78
2021/09/01 11:08:23;;;;;;;14.00;4.90;;;20.40;99.90;;;;;;5076939;28;20282;-77
2021/09/01 11:10:57;;;;;;;8.40;4.50;;;20.20;99.90;;;;;;5080647;28;20616;-76
2021/09/01 11:13:39;;;;;;;6.17;4.20;;;21.10;99.90;;;;;;5081448;28;20302;-79
2021/09/01 11:16:18;;;;;;;9.83;4.43;;;21.80;99.90;;;;;;5082602;28;20540;-77
2021/09/01 11:19:04;;;;;;;10.77;4.80;;;22.30;99.90;;;;;;5078217;28;20297;-78
2021/09/01 11:21:31;;;;;;;8.23;5.03;;;21.70;99.90;;;;;;5076013;28;20198;-79
2021/09/01 11:24:00;;;;;;;10.57;5.03;;;21.10;99.90;;;;;;5067083;28;20606;-80
2021/09/01 11:26:32;;;;;;;13.40;4.70;;;20.50;99.90;;;;;;5065149;28;20282;-79
2021/09/01 11:29:00;;;;;;;7.03;4.50;;;20.50;99.90;;;;;;5085282;28;20198;-81
2021/09/01 11:31:28;;;;;;;13.10;5.20;;;20.40;99.90;;;;;;5073393;28;20281;-81
2021/09/01 11:33:56;;;;;;;9.67;4.67;;;20.40;99.90;;;;;;5066617;28;20257;-84
2021/09/01 11:36:25;;;;;;;7.97;4.33;;;20.30;99.90;;;;;;5078471;28;20204;-79
2021/09/01 11:38:52;;;;;;;9.37;4.60;;;21.00;99.90;;;;;;5076958;28;20278;-79
2021/09/01 11:41:23;;;;;;;11.13;5.13;;;22.10;99.90;;;;;;5082788;28;20705;-80
2021/09/01 11:44:01;;;;;;;9.95;4.95;;;22.60;99.90;;;;;;5078462;28;20286;-79
2021/09/01 11:46:34;;;;;;;10.93;5.00;;;23.00;99.90;;;;;;5075871;28;20633;-79
2021/09/01 11:49:08;;;;;;;10.60;5.13;;;22.60;99.90;;;;;;5076138;28;20203;-80
2021/09/01 11:51:37;;;;;;;13.90;4.50;;;22.00;99.90;;;;;;5077399;28;20244;-79
2021/09/01 11:54:05;;;;;;;8.90;4.60;;;21.50;99.90;;;;;;5075444;28;20724;-79
2021/09/01 11:56:32;;;;;;;8.65;3.75;;;21.40;99.90;;;;;;5077532;28;20218;-79
2021/09/01 11:59:04;;;;;;;7.00;3.83;;;21.40;99.90;;;;;;5080382;28;20282;-79
2021/09/01 12:01:33;;;;;;;6.68;3.78;;;21.40;99.90;;;;;;5075305;28;20282;-79
2021/09/01 12:04:01;;;;;;;7.97;4.13;;;21.80;99.90;;;;;;5067946;28;20649;-78
2021/09/01 12:06:38;;;;;;;10.48;4.05;;;22.50;99.90;;;;;;5079630;28;20187;-79
2021/09/01 12:09:07;;;;;;;7.85;3.53;;;22.40;99.90;;;;;;5073479;28;20286;-79
2021/09/01 12:11:35;;;;;;;9.90;4.18;;;23.10;99.90;;;;;;5075017;28;20203;-78
2021/09/01 12:14:05;;;;;;;6.68;3.60;;;23.30;99.90;;;;;;5076284;28;20698;-79
2021/09/01 12:16:35;;;;;;;6.78;3.78;;;23.10;99.90;;;;;;5075316;28;20657;-80
2021/09/01 12:19:09;;;;;;;9.52;3.95;;;22.10;99.90;;;;;;5081920;28;20226;-78
2021/09/01 12:21:54;;;;;;;11.07;3.95;;;21.50;99.90;;;;;;5094234;28;20583;-79
2021/09/01 12:24:24;;;;;;;7.78;3.75;;;21.70;99.90;;;;;;5095665;28;20267;-80
2021/09/01 12:26:58;;;;;;;5.70;3.55;;;21.40;99.90;;;;;;5085462;28;20194;-80
2021/09/01 12:29:38;;;;;;;6.33;3.57;;;21.10;99.90;;;;;;5084810;28;20641;-80
2021/09/01 12:32:09;;;;;;;6.18;3.22;;;22.00;99.90;;;;;;5070733;28;20216;-80
2021/09/01 12:34:40;;;;;;;7.72;3.75;;;21.70;99.90;;;;;;5068817;28;20200;-80
2021/09/01 12:37:09;;;;;;;8.63;4.07;;;21.50;99.90;;;;;;5078708;28;20192;-79
2021/09/01 12:39:51;;;;;;;10.67;3.90;;;21.50;99.90;;;;;;5074883;28;20250;-81
2021/09/01 12:42:26;;;;;;;9.63;3.87;;;21.50;99.90;;;;;;5075042;28;20715;-81
2021/09/01 12:44:56;;;;;;;5.60;3.77;;;21.70;99.90;;;;;;5069332;28;20293;-79
2021/09/01 12:47:25;;;;;;;11.47;3.40;;;21.60;99.90;;;;;;5072417;28;20716;-80